Time;durP1;ratioP1;P1;durP2;ratioP2;P2;SDS_P1;SDS_P2;PMS_P1;PMS_P2;Temp;Humidity;BMP_temperature;BMP_pressure;BME280_temperature;BME280_humidity;BME280_pressure;Samples;Min_cycle;Max_cycle;Signal;HPM_P1;HPM_P2
2023/02/21 02:15:51;;;;;;;4.20;3.73;;;16.30;65.70;;;;;;5081106;28;20622;-45
2023/02/21 02:18:59;;;;;;;4.43;3.77;;;16.30;65.80;;;;;;5087113;28;20272;-45
2023/02/21 02:22:12;;;;;;;5.93;3.80;;;16.30;65.70;;;;;;5001773;28;20219;-45
2023/02/21 02:24:48;;;;;;;4.50;4.10;;;16.30;65.80;;;;;;5019941;28;20546;-45
2023/02/21 02:28:00;;;;;;;4.87;4.10;;;16.30;66.10;;;;;;5022887;28;20337;-45
2023/02/21 02:30:57;;;;;;;4.67;3.93;;;16.30;65.80;;;;;;5002500;28;20222;-45
2023/02/21 02:33:52;;;;;;;4.70;3.90;;;16.30;65.80;;;;;;5015531;28;20215;-45
2023/02/21 02:36:48;;;;;;;5.50;3.80;;;16.30;65.90;;;;;;5029143;28;20223;-45
2023/02/21 02:39:46;;;;;;;4.70;4.10;;;16.30;65.80;;;;;;5011843;28;20207;-45
2023/02/21 02:43:01;;;;;;;5.27;4.53;;;16.30;65.90;;;;;;5024105;28;20203;-46
2023/02/21 02:45:59;;;;;;;5.00;4.03;;;16.30;65.70;;;;;;5025759;28;20571;-45
2023/02/21 02:49:05;;;;;;;5.93;3.87;;;16.30;65.80;;;;;;5030662;28;20207;-47
2023/02/21 02:51:35;;;;;;;4.93;4.17;;;16.30;66.30;;;;;;5019568;28;20228;-46
2023/02/21 02:54:06;;;;;;;4.27;3.87;;;16.30;65.90;;;;;;5087905;28;20665;-45
2023/02/21 02:56:37;;;;;;;4.83;3.90;;;16.30;65.90;;;;;;5087745;28;20669;-45
2023/02/21 02:59:13;;;;;;;5.90;3.90;;;16.30;65.90;;;;;;5099800;28;20208;-46
2023/02/21 03:02:18;;;;;;;6.40;4.07;;;16.30;65.80;;;;;;5090513;28;20638;-46
2023/02/21 03:05:18;;;;;;;4.80;4.20;;;16.30;65.70;;;;;;5063302;28;20196;-45
2023/02/21 03:08:15;;;;;;;7.17;4.30;;;16.30;65.70;;;;;;5091801;28;20275;-45
2023/02/21 03:11:15;;;;;;;5.20;4.07;;;16.30;65.70;;;;;;5071434;28;20546;-46
2023/02/21 03:14:08;;;;;;;4.20;3.80;;;16.30;65.70;;;;;;5079343;28;20197;-45
2023/02/21 03:16:50;;;;;;;5.50;4.50;;;16.30;65.70;;;;;;5078648;28;20510;-46
2023/02/21 03:19:30;;;;;;;5.63;4.40;;;16.30;65.70;;;;;;5088731;28;20191;-45
2023/02/21 03:22:31;;;;;;;7.37;4.40;;;16.30;65.70;;;;;;5064670;28;20658;-45
2023/02/21 03:25:02;;;;;;;5.43;4.03;;;16.30;65.70;;;;;;5068271;28;20244;-45
2023/02/21 03:27:34;;;;;;;6.10;4.00;;;16.30;65.70;;;;;;5050634;28;20663;-45
2023/02/21 03:30:06;;;;;;;5.97;4.50;;;16.30;65.60;;;;;;5065528;28;20210;-45
2023/02/21 03:32:42;;;;;;;5.73;4.37;;;16.30;65.60;;;;;;5066366;28;20704;-45
2023/02/21 03:35:15;;;;;;;8.23;4.40;;;16.30;65.70;;;;;;5068515;28;20548;-45
2023/02/21 03:37:51;;;;;;;5.30;4.10;;;16.30;65.60;;;;;;5061509;28;20529;-45
2023/02/21 03:40:31;;;;;;;4.97;3.77;;;16.30;65.60;;;;;;5035940;28;20196;-45
2023/02/21 03:43:07;;;;;;;6.13;4.40;;;16.30;65.60;;;;;;5066304;28;20531;-45
2023/02/21 03:45:35;;;;;;;4.63;4.10;;;16.30;65.60;;;;;;5064768;28;20193;-45
2023/02/21 03:48:05;;;;;;;5.20;4.57;;;16.30;65.60;;;;;;5045004;28;20220;-45
2023/02/21 03:50:36;;;;;;;6.13;4.47;;;16.30;65.50;;;;;;5067500;28;20650;-45
2023/02/21 03:53:06;;;;;;;6.63;4.43;;;16.30;65.50;;;;;;5065735;28;20237;-45
2023/02/21 03:55:39;;;;;;;4.97;4.43;;;16.30;65.50;;;;;;5065176;28;20647;-45
2023/02/21 03:58:09;;;;;;;4.93;4.07;;;16.30;65.40;;;;;;5063487;28;20529;-45
2023/02/21 04:00:42;;;;;;;4.97;4.43;;;16.30;65.50;;;;;;5050837;28;20213;-45
2023/02/21 04:03:16;;;;;;;5.20;4.70;;;16.30;65.50;;;;;;5067981;28;20197;-45
2023/02/21 04:05:49;;;;;;;7.07;4.07;;;16.30;65.50;;;;;;5067514;28;20666;-45
2023/02/21 04:08:21;;;;;;;4.83;4.20;;;16.30;65.50;;;;;;5063131;28;20233;-45
2023/02/21 04:10:53;;;;;;;6.53;4.30;;;16.20;65.40;;;;;;5064272;28;20213;-45
2023/02/21 04:13:27;;;;;;;5.37;3.97;;;16.30;65.50;;;;;;5067700;28;20272;-45
2023/02/21 04:15:56;;;;;;;5.23;4.23;;;16.30;65.40;;;;;;5065594;28;20192;-45
2023/02/21 04:18:24;;;;;;;5.07;4.17;;;16.30;65.40;;;;;;5056720;28;20260;-45
2023/02/21 04:20:55;;;;;;;5.47;4.10;;;16.30;65.40;;;;;;5057253;28;20284;-45
2023/02/21 04:23:24;;;;;;;6.67;4.83;;;16.30;65.40;;;;;;5066585;28;20201;-45
2023/02/21 04:25:56;;;;;;;5.50;4.53;;;16.30;65.40;;;;;;5064219;28;20221;-45
2023/02/21 04:28:40;;;;;;;5.67;4.43;;;16.30;65.40;;;;;;5068716;28;20229;-45
2023/02/21 04:31:12;;;;;;;5.37;4.87;;;16.20;65.40;;;;;;5067061;28;20428;-46
2023/02/21 04:33:44;;;;;;;6.50;4.87;;;16.20;65.40;;;;;;5047886;28;20213;-45
2023/02/21 04:36:12;;;;;;;5.73;4.93;;;16.30;65.40;;;;;;5065460;28;20250;-46
2023/02/21 04:38:42;;;;;;;5.53;4.33;;;16.20;65.40;;;;;;5061364;28;20308;-47
2023/02/21 04:41:12;;;;;;;6.03;4.50;;;16.20;65.40;;;;;;5038589;28;20649;-46
2023/02/21 04:43:43;;;;;;;5.50;4.60;;;16.20;65.30;;;;;;5067471;28;20186;-45
2023/02/21 04:46:16;;;;;;;5.13;4.20;;;16.20;65.40;;;;;;5065019;28;20795;-45
2023/02/21 04:48:45;;;;;;;6.97;4.70;;;16.20;65.40;;;;;;5048786;28;20520;-45
2023/02/21 04:51:17;;;;;;;5.53;4.10;;;16.20;66.10;;;;;;5036946;28;20826;-45
2023/02/21 04:53:48;;;;;;;5.27;4.10;;;16.20;65.40;;;;;;5049867;28;20696;-46
2023/02/21 04:56:21;;;;;;;6.13;4.63;;;16.20;65.40;;;;;;5049696;28;20236;-46
2023/02/21 04:58:55;;;;;;;5.93;3.93;;;16.20;65.40;;;;;;5038199;28;20299;-45
2023/02/21 05:01:22;;;;;;;5.47;4.93;;;16.20;65.30;;;;;;5052818;28;20736;-45
2023/02/21 05:03:49;;;;;;;5.70;4.57;;;16.20;65.30;;;;;;5070596;28;20212;-45
2023/02/21 05:06:21;;;;;;;6.27;4.40;;;16.20;65.40;;;;;;5071506;28;20201;-45
2023/02/21 05:08:50;;;;;;;5.60;4.40;;;16.30;65.40;;;;;;5065627;28;20217;-45
2023/02/21 05:11:22;;;;;;;5.80;4.53;;;16.20;65.30;;;;;;5041438;28;20319;-45
2023/02/21 05:13:53;;;;;;;7.13;5.40;;;16.20;65.30;;;;;;5037149;28;20193;-45
2023/02/21 05:16:23;;;;;;;5.10;4.60;;;16.20;65.30;;;;;;5070977;28;20217;-45
2023/02/21 05:18:54;;;;;;;6.37;4.70;;;16.20;65.30;;;;;;5069483;28;20651;-45
2023/02/21 05:21:22;;;;;;;5.60;4.70;;;16.30;65.40;;;;;;5055687;28;20207;-45
2023/02/21 05:23:55;;;;;;;6.70;5.20;;;16.20;65.90;;;;;;5065811;28;20193;-45
2023/02/21 05:26:26;;;;;;;6.60;4.87;;;16.20;65.40;;;;;;5069710;28;20204;-45
2023/02/21 05:28:57;;;;;;;5.83;4.60;;;16.20;65.30;;;;;;5072880;28;20223;-45
2023/02/21 05:31:26;;;;;;;7.13;5.40;;;16.20;65.30;;;;;;5078150;28;20201;-45
2023/02/21 05:33:53;;;;;;;6.27;4.63;;;16.20;65.30;;;;;;5067875;28;20207;-45
2023/02/21 05:36:24;;;;;;;5.37;4.67;;;16.20;65.30;;;;;;5091388;28;20201;-45
2023/02/21 05:38:55;;;;;;;6.37;5.20;;;16.20;65.40;;;;;;5087354;28;20193;-45
2023/02/21 05:41:26;;;;;;;8.00;4.93;;;16.20;65.40;;;;;;5072873;28;20192;-45
2023/02/21 05:43:57;;;;;;;6.13;4.93;;;16.20;65.30;;;;;;5083797;28;20190;-45
2023/02/21 05:46:34;;;;;;;6.97;5.40;;;16.20;65.40;;;;;;5073433;28;20192;-45
2023/02/21 05:49:05;;;;;;;5.93;5.07;;;16.20;65.30;;;;;;5070331;28;20228;-46
2023/02/21 05:51:37;;;;;;;6.90;5.23;;;16.20;65.30;;;;;;5089182;28;20219;-45
2023/02/21 05:54:10;;;;;;;5.60;4.67;;;16.20;65.20;;;;;;5064853;28;20205;-45
2023/02/21 05:56:42;;;;;;;6.83;5.10;;;16.20;65.30;;;;;;5062102;28;20204;-45
2023/02/21 05:59:11;;;;;;;6.90;5.00;;;16.20;65.20;;;;;;5070421;28;20251;-45
2023/02/21 06:01:44;;;;;;;7.07;5.50;;;16.20;65.20;;;;;;5071472;28;20702;-45
2023/02/21 06:04:13;;;;;;;6.00;4.77;;;16.20;65.10;;;;;;5086617;28;20220;-45
2023/02/21 06:06:42;;;;;;;8.17;5.83;;;16.20;65.10;;;;;;5071031;28;20899;-45
2023/02/21 06:09:15;;;;;;;7.67;5.57;;;16.20;65.10;;;;;;5069156;28;20745;-45
2023/02/21 06:11:45;;;;;;;8.57;6.20;;;16.20;65.10;;;;;;5088995;28;20208;-45
2023/02/21 06:14:19;;;;;;;8.83;6.30;;;16.20;65.10;;;;;;5088215;28;20283;-45
2023/02/21 06:16:50;;;;;;;7.10;5.70;;;16.20;65.00;;;;;;5089948;28;20282;-46
2023/02/21 06:19:20;;;;;;;7.53;6.23;;;16.20;65.10;;;;;;5071857;28;20193;-45
2023/02/21 06:21:52;;;;;;;7.33;6.10;;;16.10;65.00;;;;;;5082837;28;20220;-45
2023/02/21 06:24:23;;;;;;;9.10;6.30;;;16.20;65.00;;;;;;5084982;28;20631;-45
2023/02/21 06:26:54;;;;;;;7.67;6.00;;;16.20;65.10;;;;;;5067898;28;20186;-45
2023/02/21 06:29:22;;;;;;;7.47;6.40;;;16.10;65.10;;;;;;5061322;28;20611;-46
2023/02/21 06:32:00;;;;;;;11.50;7.67;;;16.20;65.00;;;;;;5072662;28;20236;-45
2023/02/21 06:34:30;;;;;;;9.87;6.70;;;16.20;65.10;;;;;;5068976;28;20229;-45
2023/02/21 06:37:03;;;;;;;9.40;7.37;;;16.20;65.00;;;;;;5075173;28;20255;-47
2023/02/21 06:39:37;;;;;;;8.87;7.10;;;16.10;64.90;;;;;;5066904;28;20614;-47
2023/02/21 06:42:06;;;;;;;10.03;7.43;;;16.20;65.00;;;;;;5051023;28;20748;-47
2023/02/21 06:44:37;;;;;;;9.00;6.40;;;16.20;64.90;;;;;;5059159;28;20210;-46
2023/02/21 06:47:06;;;;;;;9.60;7.23;;;16.20;65.00;;;;;;5067436;28;20210;-48
2023/02/21 06:49:37;;;;;;;8.43;6.50;;;16.20;65.00;;;;;;5042347;28;20631;-45
2023/02/21 06:52:12;;;;;;;10.50;7.60;;;16.20;65.00;;;;;;5065372;28;20364;-46
2023/02/21 06:54:44;;;;;;;9.70;7.40;;;16.20;65.00;;;;;;5068594;28;20257;-46
2023/02/21 06:57:17;;;;;;;9.77;8.20;;;16.20;64.90;;;;;;5060766;28;20197;-45
2023/02/21 06:59:48;;;;;;;9.47;7.10;;;16.20;64.90;;;;;;5066348;28;20251;-45
2023/02/21 07:02:18;;;;;;;9.60;7.30;;;16.20;64.90;;;;;;5068509;28;20290;-45
2023/02/21 07:04:47;;;;;;;9.37;7.03;;;16.20;64.90;;;;;;5050797;28;20197;-45
2023/02/21 07:07:19;;;;;;;9.27;6.70;;;16.20;65.00;;;;;;5052087;28;20206;-46
2023/02/21 07:09:47;;;;;;;9.70;7.70;;;16.20;65.00;;;;;;5047814;28;20213;-47
2023/02/21 07:12:15;;;;;;;9.27;6.87;;;16.20;65.00;;;;;;5068409;28;20928;-47
2023/02/21 07:14:45;;;;;;;12.00;7.87;;;16.20;65.00;;;;;;5067956;28;20200;-47
2023/02/21 07:17:30;;;;;;;9.57;6.80;;;16.20;65.10;;;;;;5069142;28;20221;-45
2023/02/21 07:20:00;;;;;;;10.07;7.00;;;16.20;65.20;;;;;;5069022;28;20210;-45
2023/02/21 07:22:30;;;;;;;9.73;7.40;;;16.20;65.20;;;;;;5064446;28;20228;-45
2023/02/21 07:25:00;;;;;;;9.60;7.73;;;16.20;65.20;;;;;;5074512;28;20237;-45
2023/02/21 07:27:33;;;;;;;9.97;7.53;;;16.20;65.10;;;;;;5063847;28;20201;-46
2023/02/21 07:30:00;;;;;;;10.27;6.97;;;16.20;65.20;;;;;;5086219;28;20201;-45
2023/02/21 07:32:32;;;;;;;8.37;6.63;;;16.20;65.00;;;;;;5075915;28;20237;-45
2023/02/21 07:35:08;;;;;;;8.20;6.47;;;16.20;65.10;;;;;;5081376;28;20360;-45
2023/02/21 07:37:51;;;;;;;8.93;6.97;;;16.20;65.10;;;;;;5085526;28;20630;-45
2023/02/21 07:40:20;;;;;;;9.07;6.33;;;16.20;65.30;;;;;;5085999;28;20720;-45
2023/02/21 07:42:47;;;;;;;10.73;6.80;;;16.20;65.10;;;;;;5085929;28;20219;-46
2023/02/21 07:45:16;;;;;;;7.53;6.17;;;16.20;65.20;;;;;;5078877;28;20224;-45
2023/02/21 07:47:45;;;;;;;8.03;6.33;;;16.20;65.20;;;;;;5076076;28;20239;-45
2023/02/21 07:50:15;;;;;;;8.47;6.10;;;16.20;65.20;;;;;;5069921;28;20196;-45
2023/02/21 07:52:49;;;;;;;8.20;6.43;;;16.20;66.00;;;;;;5070823;28;20217;-45
2023/02/21 07:55:21;;;;;;;6.63;5.77;;;16.20;65.20;;;;;;5086992;28;20193;-46
2023/02/21 07:57:52;;;;;;;8.13;6.33;;;16.20;65.40;;;;;;5083156;28;20204;-47
2023/02/21 08:00:24;;;;;;;7.23;5.83;;;16.20;65.10;;;;;;5077875;28;20193;-47
2023/02/21 08:02:55;;;;;;;8.17;6.03;;;16.20;65.20;;;;;;5086382;28;20197;-47
2023/02/21 08:05:24;;;;;;;14.33;5.80;;;16.20;65.60;;;;;;5074496;28;20315;-47
2023/02/21 08:07:58;;;;;;;7.73;5.93;;;16.20;65.70;;;;;;5055441;28;20190;-47
2023/02/21 08:10:30;;;;;;;10.40;6.20;;;16.20;65.50;;;;;;5083940;28;20250;-46
2023/02/21 08:12:58;;;;;;;8.83;5.87;;;16.20;65.70;;;;;;5088006;28;20217;-47
2023/02/21 08:15:28;;;;;;;10.37;5.83;;;16.20;65.70;;;;;;5074492;28;20194;-47
2023/02/21 08:17:56;;;;;;;12.97;6.27;;;16.20;65.60;;;;;;5069627;28;20197;-47
2023/02/21 08:20:28;;;;;;;13.10;6.13;;;16.20;65.70;;;;;;5067123;28;20248;-45
2023/02/21 08:22:58;;;;;;;7.93;6.03;;;16.20;65.60;;;;;;5085293;28;20261;-46
2023/02/21 08:25:29;;;;;;;11.53;5.63;;;16.20;65.70;;;;;;5049004;28;20233;-48
2023/02/21 08:28:13;;;;;;;10.20;6.60;;;16.20;66.40;;;;;;5062853;28;21024;-47
2023/02/21 08:30:42;;;;;;;10.03;5.80;;;16.20;67.00;;;;;;5066359;28;20200;-46
2023/02/21 08:33:13;;;;;;;8.00;6.23;;;16.20;66.90;;;;;;5070621;28;20220;-47
2023/02/21 08:35:43;;;;;;;12.47;5.60;;;16.20;67.30;;;;;;5076953;28;20770;-46
2023/02/21 08:38:17;;;;;;;8.73;5.50;;;16.20;67.20;;;;;;5090433;28;20200;-45
2023/02/21 08:40:46;;;;;;;8.40;6.27;;;16.20;66.90;;;;;;5073225;28;20205;-45
2023/02/21 08:43:17;;;;;;;7.27;5.73;;;16.20;66.70;;;;;;5094277;28;20208;-45
2023/02/21 08:45:47;;;;;;;10.57;5.33;;;16.20;66.60;;;;;;5092723;28;20223;-46
2023/02/21 08:48:18;;;;;;;10.47;6.03;;;16.20;66.60;;;;;;5089346;28;20201;-46
2023/02/21 08:50:50;;;;;;;10.30;5.93;;;16.20;66.30;;;;;;5096476;28;20614;-47
2023/02/21 08:53:23;;;;;;;8.40;5.60;;;16.20;66.40;;;;;;5079411;28;20579;-46
2023/02/21 08:55:55;;;;;;;8.00;5.50;;;16.20;66.20;;;;;;5093401;28;20185;-45
2023/02/21 08:58:25;;;;;;;7.73;5.50;;;16.20;66.20;;;;;;5098761;28;20587;-45
2023/02/21 09:00:54;;;;;;;6.83;4.83;;;16.20;66.00;;;;;;5078813;28;20205;-46
2023/02/21 09:03:27;;;;;;;7.77;5.80;;;16.20;66.00;;;;;;5091666;28;20191;-45
2023/02/21 09:05:58;;;;;;;9.13;5.33;;;16.20;65.90;;;;;;5076942;28;20199;-45
2023/02/21 09:08:32;;;;;;;7.53;5.73;;;16.20;65.70;;;;;;5088231;28;20206;-45
2023/02/21 09:11:02;;;;;;;7.37;5.70;;;16.20;65.80;;;;;;5092623;28;20249;-47
2023/02/21 09:13:33;;;;;;;9.97;5.77;;;16.20;66.50;;;;;;5071992;28;20690;-46
2023/02/21 09:16:04;;;;;;;10.73;5.80;;;16.20;65.70;;;;;;5073538;28;20655;-46
2023/02/21 09:18:36;;;;;;;9.23;6.30;;;16.20;65.70;;;;;;5077254;28;20208;-45
2023/02/21 09:21:08;;;;;;;8.50;6.00;;;16.20;65.70;;;;;;5080245;28;20650;-45
2023/02/21 09:23:37;;;;;;;9.17;5.87;;;16.20;65.60;;;;;;5091285;28;20181;-45
2023/02/21 09:26:17;;;;;;;11.57;6.50;;;16.20;65.60;;;;;;5090326;28;20572;-46
2023/02/21 09:28:45;;;;;;;8.60;5.97;;;16.20;65.50;;;;;;5089650;28;20182;-45
2023/02/21 09:31:14;;;;;;;7.93;6.03;;;16.20;65.40;;;;;;5088825;28;20215;-45
2023/02/21 09:33:45;;;;;;;13.30;5.43;;;16.20;65.40;;;;;;5084547;28;20224;-45
2023/02/21 09:36:15;;;;;;;7.77;5.53;;;16.20;65.40;;;;;;5086936;28;20193;-45
2023/02/21 09:38:45;;;;;;;7.77;5.30;;;16.20;65.40;;;;;;5059211;28;20197;-45
2023/02/21 09:41:18;;;;;;;6.13;4.97;;;16.20;65.30;;;;;;5089976;28;20200;-46
2023/02/21 09:43:48;;;;;;;6.57;5.20;;;16.20;65.80;;;;;;5072513;28;20611;-46
2023/02/21 09:46:32;;;;;;;8.73;5.90;;;16.30;65.50;;;;;;5089928;28;20870;-45
2023/02/21 09:49:17;;;;;;;10.13;5.47;;;16.30;65.40;;;;;;5093173;28;20193;-45
2023/02/21 09:51:49;;;;;;;7.43;5.70;;;16.30;65.70;;;;;;5072985;28;20246;-46
2023/02/21 09:54:42;;;;;;;10.20;5.20;;;16.30;65.70;;;;;;5071061;28;20225;-46
2023/02/21 09:57:16;;;;;;;7.87;5.83;;;16.30;65.50;;;;;;5071642;28;20201;-46
2023/02/21 09:59:47;;;;;;;7.77;6.20;;;16.30;65.30;;;;;;5071726;28;20200;-46
2023/02/21 10:02:58;;;;;;;9.03;5.53;;;16.30;65.30;;;;;;5086440;28;20262;-45
2023/02/21 10:05:49;;;;;;;8.77;5.27;;;16.30;65.20;;;;;;5049236;28;20475;-45
2023/02/21 10:08:54;;;;;;;7.57;5.40;;;16.30;65.20;;;;;;5082151;28;20228;-45
2023/02/21 10:12:29;;;;;;;8.23;5.83;;;16.30;65.20;;;;;;5086430;28;20201;-45
2023/02/21 10:15:37;;;;;;;6.40;5.60;;;16.30;65.00;;;;;;4982708;28;20204;-45
2023/02/21 10:18:35;;;;;;;8.13;5.30;;;16.30;65.10;;;;;;5075725;28;20193;-46
2023/02/21 10:21:14;;;;;;;8.03;5.40;;;16.30;65.00;;;;;;5081503;28;20535;-46
2023/02/21 10:23:47;;;;;;;8.00;5.43;;;16.30;65.00;;;;;;5069866;28;20203;-46
2023/02/21 10:26:28;;;;;;;6.90;5.20;;;16.30;64.90;;;;;;5086717;28;20305;-45
2023/02/21 10:28:59;;;;;;;6.97;5.60;;;16.30;64.90;;;;;;5055634;28;20200;-45
2023/02/21 10:31:38;;;;;;;6.00;5.10;;;16.30;65.00;;;;;;5074901;28;20264;-46
2023/02/21 10:34:25;;;;;;;7.90;5.40;;;16.30;64.70;;;;;;5067442;28;20220;-46
2023/02/21 10:37:03;;;;;;;12.20;5.70;;;16.40;66.40;;;;;;5061088;28;20565;-46
2023/02/21 10:39:53;;;;;;;13.90;5.37;;;16.50;68.50;;;;;;5067496;28;20209;-47
2023/02/21 10:42:41;;;;;;;7.93;5.07;;;16.50;68.10;;;;;;5084660;28;20197;-49
2023/02/21 10:45:28;;;;;;;6.97;5.10;;;16.60;67.90;;;;;;5084187;28;20318;-46
2023/02/21 10:48:11;;;;;;;8.57;4.97;;;16.60;68.50;;;;;;5076952;28;20205;-46
2023/02/21 10:51:13;;;;;;;8.60;5.93;;;16.80;68.10;;;;;;5080762;28;20232;-46
2023/02/21 10:53:48;;;;;;;8.50;5.20;;;16.80;68.00;;;;;;5083466;28;20205;-46
2023/02/21 10:56:17;;;;;;;7.77;5.00;;;16.90;67.10;;;;;;5079317;28;20241;-47
2023/02/21 10:59:05;;;;;;;6.57;4.63;;;16.90;66.70;;;;;;5083249;28;20656;-47
2023/02/21 11:01:47;;;;;;;8.33;4.73;;;17.00;66.70;;;;;;5060142;28;20272;-47
2023/02/21 11:04:27;;;;;;;6.33;5.03;;;17.00;66.30;;;;;;5073118;28;20227;-48
2023/02/21 11:07:14;;;;;;;9.77;4.77;;;17.10;66.00;;;;;;5083084;28;20512;-45
2023/02/21 11:09:46;;;;;;;7.27;5.00;;;17.20;65.60;;;;;;5066985;28;20361;-46
2023/02/21 11:12:23;;;;;;;7.17;5.23;;;17.20;64.50;;;;;;5082762;28;20201;-46
2023/02/21 11:14:59;;;;;;;7.27;4.90;;;17.30;64.30;;;;;;5054716;28;20215;-46
2023/02/21 11:17:27;;;;;;;6.70;4.90;;;17.30;63.90;;;;;;5087844;28;20203;-47
2023/02/21 11:20:13;;;;;;;7.53;5.13;;;17.30;63.20;;;;;;5067197;28;20297;-47
2023/02/21 11:22:46;;;;;;;8.17;5.00;;;17.30;63.30;;;;;;5087714;28;20287;-45
2023/02/21 11:25:37;;;;;;;7.73;5.40;;;17.30;63.40;;;;;;5076040;28;20228;-45
2023/02/21 11:28:12;;;;;;;6.63;4.70;;;17.20;63.30;;;;;;5060327;28;20205;-45
2023/02/21 11:31:01;;;;;;;6.57;4.57;;;17.20;63.20;;;;;;5068668;28;20666;-46
2023/02/21 11:33:36;;;;;;;6.90;4.47;;;17.20;63.40;;;;;;5046522;28;21010;-46
2023/02/21 11:36:12;;;;;;;5.93;4.70;;;17.20;63.40;;;;;;5042991;28;20200;-46
2023/02/21 11:39:18;;;;;;;15.90;5.20;;;17.10;63.20;;;;;;5037524;28;20615;-47
2023/02/21 11:42:02;;;;;;;6.77;4.83;;;17.20;63.20;;;;;;5046061;28;20225;-46
2023/02/21 11:44:39;;;;;;;6.53;4.57;;;17.10;63.20;;;;;;5062548;28;20562;-46
2023/02/21 11:47:25;;;;;;;6.87;4.53;;;17.10;63.20;;;;;;5042660;28;20615;-46
2023/02/21 11:50:11;;;;;;;6.47;4.77;;;17.10;63.30;;;;;;5059160;28;20799;-46
2023/02/21 11:53:11;;;;;;;7.23;5.17;;;17.10;63.10;;;;;;5047698;28;20197;-45
2023/02/21 11:55:40;;;;;;;7.53;4.67;;;17.00;63.10;;;;;;5060129;28;20882;-45
2023/02/21 11:58:56;;;;;;;7.87;5.20;;;17.00;63.10;;;;;;5039544;28;20193;-45
2023/02/21 12:02:13;;;;;;;5.13;4.37;;;17.00;63.10;;;;;;5050948;28;20693;-46
2023/02/21 12:05:22;;;;;;;5.20;4.47;;;17.00;63.30;;;;;;5061069;28;20670;-47
2023/02/21 12:08:27;;;;;;;5.60;4.40;;;17.00;63.30;;;;;;4958088;28;20223;-46
2023/02/21 12:11:41;;;;;;;7.13;4.40;;;17.00;63.30;;;;;;4964591;28;20217;-45
2023/02/21 12:14:47;;;;;;;4.80;3.63;;;17.00;63.30;;;;;;4954711;28;20232;-46
2023/02/21 12:17:40;;;;;;;8.47;4.20;;;16.90;63.50;;;;;;4961269;28;20219;-45
2023/02/21 12:20:32;;;;;;;5.33;4.60;;;17.00;63.40;;;;;;4958062;28;20233;-45
2023/02/21 12:23:44;;;;;;;6.03;4.50;;;17.00;63.50;;;;;;4963276;28;20752;-45
2023/02/21 12:26:51;;;;;;;6.37;4.47;;;16.90;63.60;;;;;;4939871;28;20693;-45
2023/02/21 12:30:08;;;;;;;8.47;4.60;;;16.90;64.00;;;;;;4941068;28;20197;-45
2023/02/21 12:32:50;;;;;;;11.07;4.93;;;16.90;64.30;;;;;;4976674;28;20723;-46
2023/02/21 12:35:50;;;;;;;8.97;4.13;;;16.90;64.70;;;;;;4983971;28;20196;-45
2023/02/21 12:38:53;;;;;;;5.57;4.07;;;16.90;64.70;;;;;;4982009;28;20251;-45
2023/02/21 12:41:47;;;;;;;7.33;4.23;;;16.90;64.90;;;;;;4982977;28;20216;-45
2023/02/21 12:44:40;;;;;;;5.90;3.57;;;16.90;65.00;;;;;;5017114;28;20226;-45
2023/02/21 12:47:19;;;;;;;5.50;3.80;;;16.80;65.10;;;;;;5055875;28;20202;-45
2023/02/21 12:50:01;;;;;;;5.27;4.43;;;16.90;65.10;;;;;;5045034;28;20198;-45
2023/02/21 12:53:13;;;;;;;5.20;4.17;;;16.90;65.30;;;;;;5065127;28;20629;-47
2023/02/21 12:55:47;;;;;;;4.63;3.60;;;16.80;65.30;;;;;;5058700;28;20189;-46
2023/02/21 12:58:48;;;;;;;6.33;3.90;;;16.80;65.50;;;;;;5039841;28;20266;-47
2023/02/21 13:01:41;;;;;;;4.60;3.77;;;16.80;65.60;;;;;;5057440;28;20201;-46
2023/02/21 13:04:32;;;;;;;6.63;4.23;;;16.80;65.80;;;;;;5041907;28;20255;-46
2023/02/21 13:07:24;;;;;;;5.03;3.77;;;16.80;65.80;;;;;;5064144;28;20194;-45
2023/02/21 13:10:23;;;;;;;5.50;3.33;;;16.80;66.60;;;;;;5042707;28;20217;-45
2023/02/21 13:13:07;;;;;;;4.43;3.27;;;16.80;66.00;;;;;;5064915;28;20198;-45
2023/02/21 13:15:45;;;;;;;4.73;3.70;;;16.80;66.10;;;;;;5042821;28;20197;-46
2023/02/21 13:18:34;;;;;;;4.90;3.67;;;16.80;65.90;;;;;;5065583;28;20189;-46
2023/02/21 13:21:17;;;;;;;5.10;3.90;;;16.80;66.30;;;;;;5044287;28;20212;-46
2023/02/21 13:24:30;;;;;;;4.63;4.00;;;16.80;66.10;;;;;;5066071;28;20261;-46
2023/02/21 13:27:20;;;;;;;3.90;3.50;;;16.80;66.20;;;;;;5092809;28;20197;-45
2023/02/21 13:30:04;;;;;;;4.80;3.87;;;16.80;66.20;;;;;;5078982;28;20250;-45
2023/02/21 13:32:50;;;;;;;4.83;3.53;;;16.80;66.30;;;;;;5085448;28;20757;-46
2023/02/21 13:35:32;;;;;;;5.37;4.17;;;16.90;66.60;;;;;;5073904;28;20219;-46
2023/02/21 13:38:05;;;;;;;4.30;3.70;;;16.80;66.40;;;;;;5092503;28;20566;-45
2023/02/21 13:41:15;;;;;;;3.80;3.40;;;16.80;66.50;;;;;;5086457;28;20201;-46
2023/02/21 13:43:54;;;;;;;3.90;3.47;;;16.80;66.40;;;;;;5072984;28;20650;-45
2023/02/21 13:46:38;;;;;;;5.77;3.57;;;16.80;66.60;;;;;;5067081;28;20203;-46
2023/02/21 13:49:41;;;;;;;4.77;3.97;;;16.80;66.60;;;;;;5095223;28;20212;-47
2023/02/21 13:52:25;;;;;;;5.47;4.10;;;16.80;66.50;;;;;;5091930;28;20406;-45
2023/02/21 13:55:20;;;;;;;4.93;3.97;;;16.80;66.60;;;;;;5097103;28;20197;-45
2023/02/21 13:58:17;;;;;;;6.83;4.63;;;16.80;66.60;;;;;;5078284;28;20606;-47
2023/02/21 14:00:50;;;;;;;5.40;4.47;;;16.80;67.30;;;;;;5006862;28;20708;-45
2023/02/21 14:03:26;;;;;;;5.57;4.13;;;16.80;67.50;;;;;;4988901;28;20208;-45
2023/02/21 14:05:57;;;;;;;6.80;3.93;;;16.80;67.80;;;;;;5003290;28;20212;-45
2023/02/21 14:08:44;;;;;;;4.50;4.00;;;16.80;67.90;;;;;;5004362;28;20599;-46
2023/02/21 14:11:20;;;;;;;5.73;4.10;;;16.80;67.90;;;;;;5008947;28;20691;-46
2023/02/21 14:14:16;;;;;;;5.50;4.33;;;16.80;68.20;;;;;;4988757;28;20690;-45
2023/02/21 14:17:01;;;;;;;5.00;3.87;;;16.80;68.40;;;;;;4979438;28;20207;-45
2023/02/21 14:19:45;;;;;;;5.63;4.03;;;16.80;68.30;;;;;;4991319;28;20203;-45
2023/02/21 14:22:25;;;;;;;5.73;3.63;;;16.80;68.60;;;;;;5004099;28;20199;-45
2023/02/21 14:25:27;;;;;;;5.20;4.70;;;16.80;68.60;;;;;;4990658;28;20227;-45
2023/02/21 14:27:59;;;;;;;4.70;4.10;;;16.80;68.50;;;;;;4995822;28;20218;-46
2023/02/21 14:30:33;;;;;;;6.73;4.47;;;16.80;68.70;;;;;;5005029;28;20199;-47
2023/02/21 14:33:23;;;;;;;4.50;4.10;;;16.80;68.70;;;;;;4979037;28;20220;-47
2023/02/21 14:36:07;;;;;;;5.67;4.40;;;16.80;68.90;;;;;;4997324;28;20208;-45
2023/02/21 14:38:43;;;;;;;6.47;4.73;;;16.80;69.10;;;;;;5050627;28;20286;-45
2023/02/21 14:41:55;;;;;;;4.80;4.30;;;16.80;69.40;;;;;;5078844;28;20185;-46
2023/02/21 14:45:21;;;;;;;4.60;4.07;;;16.80;68.70;;;;;;5052925;28;20205;-47
2023/02/21 14:48:24;;;;;;;4.63;4.03;;;16.80;69.00;;;;;;4993482;28;20579;-46
2023/02/21 14:51:29;;;;;;;5.10;4.17;;;16.80;68.90;;;;;;5006761;28;20668;-46
2023/02/21 14:54:22;;;;;;;3.97;3.60;;;16.80;68.90;;;;;;5004393;28;20227;-46
2023/02/21 14:57:26;;;;;;;4.17;3.73;;;16.80;69.20;;;;;;5005513;28;20586;-46
2023/02/21 15:00:17;;;;;;;4.13;3.77;;;16.80;69.10;;;;;;5005755;28;20226;-46
2023/02/21 15:03:21;;;;;;;4.73;4.00;;;16.80;68.90;;;;;;4992869;28;20212;-45
2023/02/21 15:06:17;;;;;;;4.80;3.93;;;16.80;69.80;;;;;;4985786;28;20199;-47
2023/02/21 15:08:51;;;;;;;4.27;3.80;;;16.80;69.10;;;;;;5003492;28;20219;-47
2023/02/21 15:11:37;;;;;;;4.83;4.33;;;16.80;69.70;;;;;;5000057;28;20214;-46
2023/02/21 15:14:25;;;;;;;6.17;4.00;;;16.70;69.10;;;;;;5003464;28;20255;-46
2023/02/21 15:17:20;;;;;;;4.70;4.20;;;16.80;69.00;;;;;;5089511;28;20209;-46
2023/02/21 15:20:14;;;;;;;4.63;3.97;;;16.80;69.30;;;;;;5084610;28;20181;-46
2023/02/21 15:22:56;;;;;;;4.50;3.77;;;16.80;68.90;;;;;;5088438;28;20201;-46
2023/02/21 15:25:26;;;;;;;4.83;4.33;;;16.80;69.10;;;;;;5062542;28;20237;-46
2023/02/21 15:28:01;;;;;;;4.87;4.37;;;16.70;69.10;;;;;;5050564;28;20198;-46
2023/02/21 15:30:35;;;;;;;4.87;4.37;;;16.70;69.00;;;;;;5066454;28;20259;-45
2023/02/21 15:33:16;;;;;;;4.50;3.93;;;16.70;69.10;;;;;;5046388;28;20217;-46
2023/02/21 15:36:02;;;;;;;4.20;3.73;;;16.70;69.20;;;;;;5068305;28;20213;-46
2023/02/21 15:39:33;;;;;;;4.97;4.47;;;16.70;69.20;;;;;;5035370;28;20189;-45
2023/02/21 15:42:08;;;;;;;5.20;4.70;;;16.70;69.20;;;;;;5033551;28;20206;-46
2023/02/21 15:44:59;;;;;;;4.37;3.97;;;16.80;69.40;;;;;;5050886;28;20216;-45
2023/02/21 15:47:42;;;;;;;4.70;4.17;;;16.70;69.20;;;;;;5043048;28;20778;-47
2023/02/21 15:50:30;;;;;;;4.77;4.27;;;16.70;69.50;;;;;;5055329;28;20199;-47
2023/02/21 15:53:12;;;;;;;4.93;3.97;;;16.70;69.50;;;;;;5058078;28;20292;-47
2023/02/21 15:55:46;;;;;;;4.27;3.87;;;16.70;69.60;;;;;;5064576;28;20612;-45
2023/02/21 15:58:21;;;;;;;4.83;3.97;;;16.70;69.70;;;;;;5043883;28;20213;-45
2023/02/21 16:01:12;;;;;;;9.47;3.60;;;16.70;69.70;;;;;;5063524;28;20197;-45
2023/02/21 16:04:14;;;;;;;4.83;4.10;;;16.70;69.70;;;;;;5056579;28;20205;-45
2023/02/21 16:06:53;;;;;;;5.07;4.30;;;16.70;69.70;;;;;;5078903;28;20205;-45
2023/02/21 16:09:34;;;;;;;5.13;4.57;;;16.70;69.70;;;;;;5049223;28;20586;-45